Oakley, United Kingdom
Current Conditions -  °F | °C
As of 2:20 AM on Thursday 18 Dec 2014 (Local Time) from EGPH Reporting Station
Broken Clouds Broken Clouds  
Wind Chill: 50°   Ceiling: 2400
Heat Index: 50°   Visibility: 6mi
Dew Point: 48°   Wind: 15mph
Humidity: 94%   Direction: 250°WSW
Pressure: 29.41"   Gusts: NA
Location:  56.07°N, 3.55°W
Report Text: EGPH 180220Z 25013KT 9999 FEW019 BKN024 10/09 Q0996
Loading
Personal Weather Stations






























Interactive Weather Map New forecast layout! Learn more

10-Day Weather Forecast

Advertisements
Track Severe Weather on mobile